createdAt,value
2018-12-14T00:01:28.096Z,74.23
2018-12-14T00:03:56.483Z,74.93
2018-12-14T00:06:24.724Z,74.34
2018-12-14T00:08:52.968Z,74.31
2018-12-14T00:11:21.266Z,74.03
2018-12-14T00:13:49.595Z,74.20
2018-12-14T00:16:17.901Z,73.44
2018-12-14T00:18:46.224Z,73.67
2018-12-14T00:21:14.549Z,73.95
2018-12-14T00:23:42.980Z,73.69
2018-12-14T00:26:11.220Z,74.01
2018-12-14T00:28:39.516Z,74.10
2018-12-14T00:31:07.851Z,73.39
2018-12-14T00:33:36.131Z,73.83
2018-12-14T00:36:04.513Z,73.66
2018-12-14T00:38:32.867Z,74.08
2018-12-14T00:41:01.179Z,73.14
2018-12-14T00:43:29.462Z,73.41
2018-12-14T00:45:57.728Z,73.25
2018-12-14T00:48:25.934Z,73.46
2018-12-14T00:50:54.154Z,73.62
2018-12-14T00:53:22.440Z,73.56
2018-12-14T00:55:50.677Z,73.29
2018-12-14T01:05:14.259Z,73.40
2018-12-14T01:07:42.550Z,73.61
2018-12-14T01:10:10.810Z,73.20
2018-12-14T01:12:40.199Z,73.69
2018-12-14T01:15:08.499Z,74.25
2018-12-14T01:17:36.967Z,73.94
2018-12-14T01:20:07.260Z,73.81
2018-12-14T01:22:35.582Z,73.83
2018-12-14T01:25:04.021Z,73.59
2018-12-14T01:27:32.306Z,74.15
2018-12-14T01:30:00.614Z,74.05
2018-12-14T01:32:28.925Z,74.31
2018-12-14T01:34:57.223Z,73.88
2018-12-14T01:37:25.563Z,73.99
2018-12-14T01:39:53.837Z,74.09
2018-12-14T01:42:22.103Z,73.90
2018-12-14T01:44:50.407Z,73.72
2018-12-14T01:47:18.670Z,74.27
2018-12-14T01:49:47.012Z,74.09
2018-12-14T01:52:15.252Z,74.30
2018-12-14T01:54:43.706Z,74.32
2018-12-14T01:57:18.322Z,74.15
2018-12-14T01:59:46.639Z,74.70
2018-12-14T02:02:15.420Z,74.72
2018-12-14T02:04:43.630Z,74.72
2018-12-14T02:07:11.938Z,75.07
2018-12-14T02:09:40.203Z,74.82
2018-12-14T02:12:11.230Z,74.65
2018-12-14T02:14:38.701Z,74.69
2018-12-14T02:17:06.962Z,74.98
2018-12-14T02:19:35.260Z,75.21
2018-12-14T02:22:03.558Z,74.71
2018-12-14T02:24:31.811Z,75.14
2018-12-14T02:27:00.180Z,74.97
2018-12-14T02:29:28.468Z,73.99
2018-12-14T02:31:56.775Z,73.92
2018-12-14T02:34:25.035Z,74.08
2018-12-14T02:36:53.237Z,73.86
2018-12-14T02:39:21.468Z,73.67
2018-12-14T02:41:49.859Z,73.83
2018-12-14T02:44:18.137Z,74.27
2018-12-14T02:46:46.460Z,73.94
2018-12-14T02:49:14.698Z,74.45
2018-12-14T02:51:42.936Z,74.40
2018-12-14T02:54:11.217Z,74.22
2018-12-14T02:56:39.439Z,74.53
2018-12-14T02:59:07.785Z,74.16
2018-12-14T03:01:36.120Z,74.32
2018-12-14T03:04:04.428Z,73.97
2018-12-14T03:06:32.740Z,73.96
2018-12-14T03:09:00.982Z,73.72
2018-12-14T03:11:29.189Z,73.37
2018-12-14T03:13:57.432Z,73.77
2018-12-14T03:16:25.645Z,73.40
2018-12-14T03:18:53.883Z,73.50
2018-12-14T03:21:22.162Z,73.48
2018-12-14T03:23:50.416Z,73.34
2018-12-14T03:26:18.762Z,73.35
2018-12-14T03:28:53.677Z,73.39
2018-12-14T03:31:21.950Z,73.32
2018-12-14T03:33:50.207Z,73.28
2018-12-14T03:36:18.466Z,73.41
2018-12-14T03:38:46.794Z,73.62
2018-12-14T03:41:15.026Z,73.64
2018-12-14T03:43:43.282Z,73.98
2018-12-14T03:46:11.568Z,73.84
2018-12-14T03:48:39.855Z,74.57
2018-12-14T03:51:08.089Z,74.06
2018-12-14T03:53:36.363Z,74.64
2018-12-14T03:56:04.586Z,73.90
2018-12-14T03:58:32.849Z,74.18
2018-12-14T04:01:01.092Z,74.12
2018-12-14T04:03:29.313Z,74.27
2018-12-14T04:05:57.625Z,74.64
2018-12-14T04:08:25.855Z,74.58
2018-12-14T04:10:54.195Z,75.03
2018-12-14T04:13:22.541Z,75.47
2018-12-14T04:15:50.844Z,75.26
2018-12-14T04:18:19.128Z,76.09
2018-12-14T04:20:47.560Z,76.12
2018-12-14T04:23:15.861Z,75.22
2018-12-14T04:25:44.127Z,75.94
2018-12-14T04:28:12.440Z,75.23
2018-12-14T04:30:40.639Z,75.59
2018-12-14T04:33:08.871Z,75.33
2018-12-14T04:35:37.157Z,74.83
2018-12-14T04:38:05.423Z,74.95
2018-12-14T04:40:33.674Z,75.53
2018-12-14T04:43:01.983Z,75.48
2018-12-14T04:45:30.281Z,74.95
2018-12-14T04:47:58.638Z,75.33
2018-12-14T04:50:26.907Z,75.90
2018-12-14T04:52:55.192Z,75.67
2018-12-14T04:55:23.447Z,75.54
2018-12-14T04:57:51.677Z,75.42
2018-12-14T05:00:19.913Z,75.62
2018-12-14T05:02:48.205Z,75.67
2018-12-14T05:05:16.453Z,75.75
2018-12-14T05:07:44.700Z,74.38
2018-12-14T05:10:12.877Z,74.30
2018-12-14T05:12:41.136Z,73.63
2018-12-14T05:15:09.357Z,74.54
2018-12-14T05:17:37.825Z,74.46
2018-12-14T05:20:06.533Z,74.55
2018-12-14T05:22:34.760Z,74.07
2018-12-14T05:25:02.972Z,74.62
2018-12-14T05:27:31.214Z,74.62
2018-12-14T05:29:59.623Z,74.75
2018-12-14T05:32:27.924Z,74.28
2018-12-14T05:34:56.217Z,74.76
2018-12-14T05:37:24.458Z,73.86
2018-12-14T05:39:52.690Z,73.84
2018-12-14T05:42:20.911Z,73.97
2018-12-14T05:44:49.232Z,73.93
2018-12-14T05:47:17.563Z,74.58
2018-12-14T05:49:45.843Z,73.81
2018-12-14T05:52:14.186Z,73.53
2018-12-14T05:54:42.491Z,73.64
2018-12-14T05:57:10.792Z,73.53
2018-12-14T05:59:39.086Z,73.64
2018-12-14T06:02:07.337Z,73.19
2018-12-14T06:04:35.570Z,73.30
2018-12-14T06:07:04.000Z,73.04
2018-12-14T06:09:32.171Z,73.44
2018-12-14T06:12:00.564Z,73.29
2018-12-14T06:14:28.852Z,73.14
2018-12-14T06:16:57.054Z,73.89
2018-12-14T06:19:25.290Z,73.38
2018-12-14T06:21:53.507Z,73.40
2018-12-14T06:24:22.049Z,73.41
2018-12-14T06:26:50.422Z,73.49
2018-12-14T06:29:18.670Z,73.73
2018-12-14T06:31:46.877Z,73.01
2018-12-14T06:34:15.058Z,73.65
2018-12-14T06:36:43.349Z,73.87
2018-12-14T06:39:11.600Z,73.39
2018-12-14T06:41:40.336Z,73.85
2018-12-14T06:44:08.588Z,73.80
2018-12-14T06:46:36.835Z,73.62
2018-12-14T06:49:05.082Z,73.21
2018-12-14T06:51:33.407Z,73.15
2018-12-14T06:54:01.713Z,73.17
2018-12-14T06:56:30.113Z,72.59
2018-12-14T06:58:58.435Z,72.73
2018-12-14T07:01:26.714Z,73.37
2018-12-14T07:03:54.966Z,73.94
2018-12-14T07:06:23.189Z,72.55
2018-12-14T07:08:51.413Z,73.35
2018-12-14T07:11:19.713Z,72.64
2018-12-14T07:13:48.045Z,72.92
2018-12-14T07:16:16.355Z,72.45
2018-12-14T07:18:44.663Z,72.10
2018-12-14T07:21:12.987Z,72.14
2018-12-14T07:23:41.195Z,72.21
2018-12-14T07:26:09.436Z,72.02
2018-12-14T07:28:37.665Z,72.35
2018-12-14T07:31:06.024Z,72.09
2018-12-14T07:33:34.264Z,72.59
2018-12-14T07:36:02.562Z,73.29
2018-12-14T07:38:30.783Z,72.59
2018-12-14T07:40:59.135Z,72.79
2018-12-14T07:43:28.427Z,72.63
2018-12-14T07:45:57.050Z,72.60
2018-12-14T07:48:25.270Z,72.87
2018-12-14T07:50:53.555Z,72.81
2018-12-14T07:53:21.902Z,72.48
2018-12-14T07:55:50.135Z,73.04
2018-12-14T07:58:18.382Z,72.66
2018-12-14T08:00:46.743Z,73.36
2018-12-14T08:03:15.260Z,73.09
2018-12-14T08:05:43.564Z,72.93
2018-12-14T08:08:11.781Z,71.91
2018-12-14T08:10:39.989Z,71.81
2018-12-14T08:13:08.396Z,72.32
2018-12-14T08:15:36.961Z,71.86
2018-12-14T08:18:05.273Z,71.75
2018-12-14T08:20:33.650Z,71.89
2018-12-14T08:23:01.888Z,71.82
2018-12-14T08:25:30.183Z,71.35
2018-12-14T08:27:58.562Z,71.46
2018-12-14T08:30:26.976Z,70.74
2018-12-14T08:32:55.235Z,69.68
2018-12-14T08:35:23.538Z,69.43
2018-12-14T08:37:51.961Z,69.44
2018-12-14T08:40:20.272Z,69.59
2018-12-14T08:42:48.807Z,69.34
2018-12-14T08:45:17.156Z,68.90
2018-12-14T08:47:45.603Z,68.43
2018-12-14T08:50:13.908Z,68.60
2018-12-14T08:52:42.151Z,68.68
2018-12-14T08:55:10.448Z,68.66
2018-12-14T08:57:38.834Z,68.58
2018-12-14T09:00:07.282Z,68.06
2018-12-14T09:02:35.583Z,68.09
2018-12-14T09:05:04.130Z,68.62
2018-12-14T09:07:32.457Z,68.03
2018-12-14T09:10:00.719Z,67.91
2018-12-14T09:12:28.984Z,68.23
2018-12-14T09:14:57.243Z,67.17
2018-12-14T09:17:25.543Z,67.61
2018-12-14T09:19:54.302Z,67.50
2018-12-14T09:22:22.515Z,66.89
2018-12-14T09:24:50.750Z,66.82
2018-12-14T09:27:18.972Z,64.86
2018-12-14T09:29:47.236Z,64.48
2018-12-14T09:32:15.465Z,64.78
2018-12-14T09:34:44.016Z,64.30
2018-12-14T09:37:12.299Z,64.63
2018-12-14T09:39:40.692Z,64.86
2018-12-14T09:42:08.937Z,63.33
2018-12-14T09:44:37.179Z,62.52
2018-12-14T09:47:05.523Z,63.11
2018-12-14T09:49:33.733Z,63.28
2018-12-14T09:52:02.032Z,62.67
2018-12-14T09:54:30.408Z,62.91
2018-12-14T09:56:58.663Z,63.33
2018-12-14T09:59:26.940Z,63.39
2018-12-14T10:01:55.259Z,63.48
2018-12-14T10:04:23.543Z,63.11
2018-12-14T10:06:51.792Z,62.95
2018-12-14T10:09:20.050Z,62.93
2018-12-14T10:11:54.887Z,62.63
2018-12-14T10:14:31.272Z,62.65
2018-12-14T10:16:59.510Z,62.45
2018-12-14T10:22:20.385Z,61.95
2018-12-14T10:24:48.639Z,60.66
2018-12-14T10:27:32.867Z,61.46
2018-12-14T10:30:01.144Z,61.03
2018-12-14T10:32:29.455Z,61.70
2018-12-14T10:34:57.702Z,61.63
2018-12-14T10:37:26.009Z,61.60
2018-12-14T10:39:54.259Z,61.10
2018-12-14T10:42:22.708Z,60.66
2018-12-14T10:44:50.997Z,60.51
2018-12-14T10:47:19.248Z,60.86
2018-12-14T10:49:47.474Z,60.31
2018-12-14T10:52:15.766Z,60.74
2018-12-14T10:54:44.375Z,60.40
2018-12-14T10:57:16.161Z,60.79
2018-12-14T10:59:43.208Z,60.96
2018-12-14T11:02:11.421Z,60.79
2018-12-14T11:04:39.716Z,60.80
2018-12-14T11:07:07.943Z,60.46
2018-12-14T11:09:36.250Z,60.89
2018-12-14T11:12:04.497Z,60.86
2018-12-14T11:14:32.713Z,60.12
2018-12-14T11:17:01.001Z,61.06
2018-12-14T11:19:29.295Z,60.87
2018-12-14T11:21:57.550Z,61.55
2018-12-14T11:24:25.809Z,61.27
2018-12-14T11:26:54.075Z,61.39
2018-12-14T11:29:22.268Z,61.86
2018-12-14T11:31:50.530Z,61.51
2018-12-14T11:34:18.827Z,61.38
2018-12-14T11:36:47.150Z,62.08
2018-12-14T11:39:15.390Z,61.93
2018-12-14T11:41:43.949Z,62.45
2018-12-14T11:44:12.206Z,61.63
2018-12-14T11:46:40.507Z,61.97
2018-12-14T11:49:08.815Z,62.13
2018-12-14T11:51:37.308Z,61.86
2018-12-14T11:54:05.551Z,62.73
2018-12-14T11:56:33.829Z,62.76
2018-12-14T11:59:02.089Z,63.05
2018-12-14T12:01:30.334Z,63.28
2018-12-14T12:03:58.586Z,62.33
2018-12-14T12:06:26.805Z,62.38
2018-12-14T12:08:55.014Z,62.57
2018-12-14T12:11:23.233Z,62.95
2018-12-14T12:13:51.472Z,62.84
2018-12-14T12:16:19.784Z,63.42
2018-12-14T12:18:48.068Z,63.32
2018-12-14T12:21:16.561Z,63.04
2018-12-14T12:23:44.886Z,62.87
2018-12-14T12:26:13.149Z,62.75
2018-12-14T12:28:41.392Z,63.05
2018-12-14T12:31:09.727Z,63.58
2018-12-14T12:33:38.069Z,63.68
2018-12-14T12:36:06.368Z,63.45
2018-12-14T12:38:38.104Z,62.71
2018-12-14T12:41:04.884Z,62.87
2018-12-14T12:43:33.135Z,62.69
2018-12-14T12:46:01.437Z,63.26
2018-12-14T12:48:29.804Z,63.67
2018-12-14T12:51:03.079Z,63.52
2018-12-14T12:53:28.378Z,63.26
2018-12-14T12:55:56.699Z,63.73
2018-12-14T12:58:25.082Z,63.80
2018-12-14T13:00:53.341Z,62.91
2018-12-14T13:03:21.940Z,63.65
2018-12-14T13:05:50.260Z,63.06
2018-12-14T13:08:18.612Z,63.29
2018-12-14T13:10:46.901Z,64.01
2018-12-14T13:13:15.155Z,63.85
2018-12-14T13:15:43.438Z,63.29
2018-12-14T13:18:11.654Z,63.35
2018-12-14T13:20:39.929Z,63.48
2018-12-14T13:23:08.137Z,63.86
2018-12-14T13:25:36.438Z,64.10
2018-12-14T13:28:05.118Z,63.68
2018-12-14T13:30:33.389Z,63.63
2018-12-14T13:33:01.830Z,63.89
2018-12-14T13:35:30.061Z,63.40
2018-12-14T13:37:58.283Z,63.15
2018-12-14T13:40:26.590Z,63.50
2018-12-14T13:42:54.852Z,63.77
2018-12-14T13:45:23.175Z,63.92
2018-12-14T13:47:51.458Z,64.43
2018-12-14T13:50:19.810Z,64.40
2018-12-14T13:52:48.125Z,63.95
2018-12-14T13:55:16.404Z,63.82
2018-12-14T13:57:45.594Z,64.68
2018-12-14T14:00:14.029Z,64.66
2018-12-14T14:02:42.318Z,64.33
2018-12-14T14:05:10.583Z,64.57
2018-12-14T14:07:39.002Z,65.07
2018-12-14T14:10:07.592Z,65.32
2018-12-14T14:12:35.833Z,64.79
2018-12-14T14:15:04.539Z,65.77
2018-12-14T14:17:32.934Z,65.73
2018-12-14T14:20:01.294Z,65.72
2018-12-14T14:22:30.049Z,65.37
2018-12-14T14:24:58.326Z,65.60
2018-12-14T14:27:26.621Z,65.61
2018-12-14T14:29:54.881Z,65.55
2018-12-14T14:32:23.171Z,65.39
2018-12-14T14:34:51.474Z,65.68
2018-12-14T14:37:19.790Z,65.61
2018-12-14T14:39:48.058Z,65.85
2018-12-14T14:42:16.480Z,66.41
2018-12-14T14:44:44.789Z,66.46
2018-12-14T14:47:13.021Z,66.09
2018-12-14T14:49:41.430Z,65.96
2018-12-14T14:52:09.690Z,65.79
2018-12-14T14:54:39.928Z,66.02
2018-12-14T14:57:08.425Z,66.30
2018-12-14T14:59:36.760Z,66.22
2018-12-14T15:02:05.120Z,66.71
2018-12-14T15:04:33.350Z,66.93
2018-12-14T15:07:01.657Z,67.49
2018-12-14T15:09:30.097Z,67.90
2018-12-14T15:11:58.454Z,68.33
2018-12-14T15:14:26.772Z,67.66
2018-12-14T15:16:55.030Z,67.92
2018-12-14T15:19:23.268Z,67.32
2018-12-14T15:21:51.822Z,68.05
2018-12-14T15:24:20.103Z,67.39
2018-12-14T15:26:48.455Z,67.94
2018-12-14T15:29:16.744Z,67.64
2018-12-14T15:31:45.721Z,68.19
2018-12-14T15:34:14.535Z,68.26
2018-12-14T15:36:43.143Z,68.25
2018-12-14T15:39:11.368Z,68.40
2018-12-14T15:41:39.625Z,68.51
2018-12-14T15:44:07.901Z,68.53
2018-12-14T15:46:36.172Z,67.83
2018-12-14T15:49:04.498Z,68.18
2018-12-14T15:51:32.864Z,68.36
2018-12-14T15:54:01.089Z,68.10
2018-12-14T15:56:29.385Z,68.43
2018-12-14T15:58:57.702Z,68.16
2018-12-14T16:01:25.983Z,67.88
2018-12-14T16:03:54.309Z,68.03
2018-12-14T16:06:22.595Z,68.16
2018-12-14T16:11:43.419Z,67.99
2018-12-14T16:14:11.638Z,68.53
2018-12-14T16:16:39.923Z,68.11
2018-12-14T16:19:08.277Z,68.50
2018-12-14T16:21:36.676Z,68.26
2018-12-14T16:24:04.943Z,68.41
2018-12-14T16:26:33.215Z,67.75
2018-12-14T16:29:01.562Z,67.38
2018-12-14T16:31:29.826Z,67.53
2018-12-14T16:33:58.148Z,67.63
2018-12-14T16:36:26.397Z,67.71
2018-12-14T16:38:55.410Z,67.94
2018-12-14T16:41:23.661Z,68.54
2018-12-14T16:46:44.748Z,67.94
2018-12-14T16:49:13.186Z,67.85
2018-12-14T16:52:04.384Z,68.59
2018-12-14T16:54:35.932Z,68.09
2018-12-14T16:57:04.380Z,68.28
2018-12-14T16:59:32.734Z,68.30
2018-12-14T17:02:01.032Z,68.35
2018-12-14T17:07:21.804Z,68.82
2018-12-14T17:09:50.064Z,68.43
2018-12-14T17:12:18.315Z,68.83
2018-12-14T17:14:46.677Z,69.05
2018-12-14T17:17:14.916Z,68.70
2018-12-14T17:19:43.183Z,68.71
2018-12-14T17:22:11.606Z,69.25
2018-12-14T17:24:39.861Z,69.52
2018-12-14T17:27:08.608Z,69.71
2018-12-14T17:29:36.826Z,69.52
2018-12-14T17:32:05.112Z,68.84
2018-12-14T17:34:33.391Z,69.07
2018-12-14T17:37:01.733Z,69.37
2018-12-14T17:39:29.964Z,69.04
2018-12-14T17:41:58.229Z,69.16
2018-12-14T17:44:26.528Z,69.80
2018-12-14T17:46:54.997Z,69.91
2018-12-14T17:49:23.269Z,69.29
2018-12-14T17:51:51.639Z,70.01
2018-12-14T17:54:19.878Z,70.50
2018-12-14T17:56:48.180Z,70.19
2018-12-14T17:59:16.564Z,70.54
2018-12-14T18:01:45.233Z,70.78
2018-12-14T18:04:13.776Z,70.34
2018-12-14T18:06:43.011Z,71.01
2018-12-14T18:09:11.394Z,71.88
2018-12-14T18:11:39.675Z,71.02
2018-12-14T18:14:07.976Z,70.69
2018-12-14T18:16:36.750Z,70.89
2018-12-14T18:19:05.228Z,71.17
2018-12-14T18:21:33.581Z,70.62
2018-12-14T18:24:01.837Z,70.48
2018-12-14T18:26:30.112Z,69.95
2018-12-14T18:28:58.378Z,70.90
2018-12-14T18:31:26.626Z,71.34
2018-12-14T18:33:55.068Z,71.05
2018-12-14T18:36:23.457Z,70.83
2018-12-14T18:38:51.733Z,71.29
2018-12-14T18:41:20.022Z,71.19
2018-12-14T18:43:48.349Z,71.13
2018-12-14T18:46:16.945Z,70.55
2018-12-14T18:48:45.321Z,70.97
2018-12-14T18:51:13.568Z,70.77
2018-12-14T18:53:46.197Z,70.80
2018-12-14T18:56:14.561Z,71.11
2018-12-14T18:58:42.828Z,71.05
2018-12-14T19:01:11.091Z,71.23
2018-12-14T19:03:39.495Z,70.92
2018-12-14T19:06:07.842Z,71.45
2018-12-14T19:08:36.855Z,71.60
2018-12-14T19:11:05.247Z,71.37
2018-12-14T19:13:33.951Z,71.35
2018-12-14T19:16:02.559Z,70.98
2018-12-14T19:18:30.831Z,71.44
2018-12-14T19:20:59.165Z,71.74
2018-12-14T19:23:28.245Z,71.31
2018-12-14T19:25:56.734Z,71.19
2018-12-14T19:28:25.021Z,71.24
2018-12-14T19:30:53.315Z,71.43
2018-12-14T19:33:22.028Z,70.37
2018-12-14T19:35:50.473Z,70.92
2018-12-14T19:38:18.757Z,70.40
2018-12-14T19:40:47.105Z,71.12
2018-12-14T19:43:15.621Z,70.56
2018-12-14T19:45:44.085Z,70.03
2018-12-14T19:48:12.390Z,70.55
2018-12-14T19:50:40.887Z,70.33
2018-12-14T19:53:09.709Z,70.98
2018-12-14T19:55:38.115Z,70.63
2018-12-14T19:58:06.362Z,70.83
2018-12-14T20:00:35.321Z,70.57
2018-12-14T20:03:04.739Z,71.29
2018-12-14T20:05:33.236Z,70.98
2018-12-14T20:08:01.731Z,69.82
2018-12-14T20:10:30.228Z,69.80
2018-12-14T20:12:59.107Z,69.68
2018-12-14T20:15:27.885Z,70.06
2018-12-14T20:17:56.661Z,70.57
2018-12-14T20:20:24.910Z,70.00
2018-12-14T20:22:53.549Z,69.75
2018-12-14T20:25:21.931Z,69.41
2018-12-14T20:27:50.208Z,69.38
2018-12-14T20:30:18.758Z,69.79
2018-12-14T20:32:47.227Z,69.89
2018-12-14T20:35:16.431Z,69.36
2018-12-14T20:37:45.066Z,69.28
2018-12-14T20:40:13.478Z,69.34
2018-12-14T20:42:41.790Z,69.71
2018-12-14T20:45:10.254Z,69.92
2018-12-14T20:47:38.705Z,69.09
2018-12-14T20:50:08.102Z,69.81
2018-12-14T20:52:36.686Z,69.41
2018-12-14T20:55:06.301Z,69.17
2018-12-14T20:57:53.819Z,68.28
2018-12-14T21:00:22.300Z,69.02
2018-12-14T21:03:13.083Z,68.97
2018-12-14T21:05:41.733Z,68.91
2018-12-14T21:08:10.627Z,69.13
2018-12-14T21:10:39.344Z,68.61
2018-12-14T21:13:08.469Z,69.17
2018-12-14T21:15:37.901Z,69.00
2018-12-14T21:18:06.903Z,68.80
2018-12-14T21:20:35.273Z,68.79
2018-12-14T21:23:03.747Z,68.40
2018-12-14T21:28:24.807Z,68.87
2018-12-14T21:30:53.107Z,69.12
2018-12-14T21:33:21.670Z,68.83
2018-12-14T21:35:49.961Z,68.86
2018-12-14T21:38:24.046Z,68.54
2018-12-14T21:40:52.339Z,68.85
2018-12-14T21:43:20.754Z,68.50
2018-12-14T21:45:49.067Z,68.79
2018-12-14T21:48:18.198Z,68.85
2018-12-14T21:50:46.468Z,68.15
2018-12-14T21:53:14.820Z,68.69
2018-12-14T21:55:43.229Z,68.70
2018-12-14T21:58:11.596Z,68.57
2018-12-14T22:00:39.932Z,68.52
2018-12-14T22:03:08.201Z,67.97
2018-12-14T22:05:36.605Z,68.25
2018-12-14T22:08:05.139Z,68.62
2018-12-14T22:10:33.489Z,68.40
2018-12-14T22:13:01.766Z,67.68
2018-12-14T22:15:30.078Z,68.02
2018-12-14T22:17:58.332Z,67.81
2018-12-14T22:20:26.592Z,67.97
2018-12-14T22:22:54.934Z,67.38
2018-12-14T22:25:23.519Z,67.15
2018-12-14T22:27:52.251Z,67.68
2018-12-14T22:30:20.876Z,67.50
2018-12-14T22:32:49.257Z,67.11
2018-12-14T22:35:17.895Z,67.52
2018-12-14T22:37:46.291Z,67.22
2018-12-14T22:40:14.680Z,67.62
2018-12-14T22:42:43.537Z,67.26
2018-12-14T22:45:11.953Z,67.71
2018-12-14T22:47:40.461Z,68.07
2018-12-14T22:50:08.962Z,67.99
2018-12-14T22:52:37.440Z,67.98
2018-12-14T22:55:06.048Z,67.85
2018-12-14T22:57:34.420Z,67.82
2018-12-14T23:00:02.945Z,67.32
2018-12-14T23:02:31.408Z,67.30
2018-12-14T23:04:59.756Z,67.77
2018-12-14T23:07:28.109Z,67.94
2018-12-14T23:09:56.997Z,68.19
2018-12-14T23:12:25.368Z,67.91
2018-12-14T23:14:53.714Z,67.73
2018-12-14T23:17:22.059Z,68.12
2018-12-14T23:19:50.306Z,68.47
2018-12-14T23:22:18.596Z,68.31
2018-12-14T23:24:46.861Z,68.74
2018-12-14T23:27:15.121Z,68.54
2018-12-14T23:29:43.413Z,68.37
2018-12-14T23:32:11.676Z,67.90
2018-12-14T23:34:39.957Z,68.28
2018-12-14T23:37:13.722Z,68.00
2018-12-14T23:39:38.443Z,68.37
2018-12-14T23:42:06.755Z,68.03
2018-12-14T23:44:35.221Z,68.33
2018-12-14T23:47:03.482Z,68.04
2018-12-14T23:49:31.723Z,68.08
2018-12-14T23:52:00.040Z,67.51
2018-12-14T23:54:28.398Z,67.21
2018-12-14T23:56:56.672Z,67.77
2018-12-14T23:59:24.971Z,68.08
